Pagina principale
METAR-TAF:

METAR-TAF

Aeroporti :

Base di Solenzara

Solenzara, Francia

latitudine: 41-55N, longitudine: 009-24E, altezza: 8 m

Osservazione

Il bollettino è stato emesso 33 minuti fa, alle 16:00 UTC
Vento 8 kt da sud/sud-est
Temperature 28°C
Umidità 70%
Pressione 1016 hPa
Visibilità 10 km o più
nessuna nube inferiore a 1500 m e nessun cumulonembo

METAR: LFKS 191600Z AUTO 16008KT CAVOK 28/22 Q1016

Ora: 18:33 (16:33 UTC)

Previsione

Il bollettino è stato emesso 2 ore e 33 minuti fa, alle 14:00 UTC
Previsione valida dal 19 alle 15 UTC al 20 alle 15 UTC
Vento 10 kt da sud-est
Visibilità 10 km o più
nessuna nube inferiore a 1500 m e nessun cumulonembo

TAF: LFKS 191400Z 1915/2015 14010KT CAVOK

Osservazioni e previsioni meteorologiche di più di 4000 aeroporti (messaggi METAR e TAF).

Le stazioni disponibili sono rappresentate dai dischi gialli e rossi sulla carta.

Puntare il mouse per vedere il nome della stazione.

Clicca sopra per visualizzare le osservazioni e previsioni meteorologiche.

Per cambiare la mappa : fare clic sui pulsanti verdi con una croce nera per ingrandire, il pulsante verde con un trattino per diminuire, o sulla freccia verde per le mappe adiacenti.


METAR-TAF: